Time;durP1;ratioP1;P1;durP2;ratioP2;P2;SDS_P1;SDS_P2;PMS_P1;PMS_P2;Temp;Humidity;BMP_temperature;BMP_pressure;BME280_temperature;BME280_humidity;BME280_pressure;Samples;Min_cycle;Max_cycle;Signal;HPM_P1;HPM_P2
2024/01/03 00:00:00;;;;;;;0.10;0.10;;;10.20;99.90;;;;;;5015936;28;20061;-81
2024/01/03 00:02:26;;;;;;;0.00;0.00;;;10.10;99.90;;;;;;5020137;28;20040;-81
2024/01/03 00:04:51;;;;;;;0.10;0.10;;;10.00;99.90;;;;;;5012406;28;20045;-80
2024/01/03 00:07:17;;;;;;;0.00;0.00;;;9.80;99.90;;;;;;5018336;28;20125;-81
2024/01/03 00:09:44;;;;;;;0.10;0.10;;;9.70;99.90;;;;;;5023141;28;20022;-82
2024/01/03 00:12:14;;;;;;;0.10;0.10;;;9.90;99.90;;;;;;5015949;28;20098;-84
2024/01/03 00:14:40;;;;;;;0.10;0.10;;;9.90;99.90;;;;;;5020466;28;20080;-82
2024/01/03 00:17:07;;;;;;;0.10;0.10;;;10.00;99.90;;;;;;5019506;28;20557;-80
2024/01/03 00:19:35;;;;;;;0.10;0.10;;;10.00;99.90;;;;;;5023492;28;20473;-80
2024/01/03 00:22:01;;;;;;;0.10;0.10;;;10.00;99.90;;;;;;5021846;28;20033;-80
2024/01/03 00:24:28;;;;;;;0.10;0.10;;;10.00;99.90;;;;;;5017491;28;20044;-82
2024/01/03 00:26:54;;;;;;;0.10;0.10;;;10.00;99.90;;;;;;5020247;28;20057;-83
2024/01/03 00:29:23;;;;;;;0.10;0.10;;;10.00;99.90;;;;;;5015749;28;20471;-80
2024/01/03 00:31:49;;;;;;;0.10;0.10;;;10.10;99.90;;;;;;5018310;28;20603;-80
2024/01/03 00:34:21;;;;;;;0.10;0.10;;;10.10;99.90;;;;;;5023358;28;20029;-80
2024/01/03 00:36:52;;;;;;;0.10;0.10;;;10.10;99.90;;;;;;5025852;28;20033;-81
2024/01/03 00:39:31;;;;;;;0.10;0.10;;;10.10;99.90;;;;;;5024108;28;20024;-81
2024/01/03 00:41:57;;;;;;;0.10;0.10;;;10.10;99.90;;;;;;5024786;28;20053;-79
2024/01/03 00:44:23;;;;;;;0.10;0.10;;;10.10;99.90;;;;;;5023545;28;20037;-78
2024/01/03 00:46:50;;;;;;;0.08;0.08;;;10.00;99.90;;;;;;5024551;28;20033;-77
2024/01/03 00:49:16;;;;;;;;;;;10.00;99.90;;;;;;5024618;28;20057;-77
2024/01/03 00:51:48;;;;;;;0.08;0.08;;;9.90;99.90;;;;;;5021540;28;19920;-77
2024/01/03 00:54:16;;;;;;;0.00;0.00;;;9.80;99.90;;;;;;5013959;28;20032;-77
2024/01/03 00:56:42;;;;;;;0.10;0.10;;;9.80;99.90;;;;;;5022960;28;20028;-78
2024/01/03 00:59:08;;;;;;;0.10;0.10;;;9.70;99.90;;;;;;5023042;28;20092;-77
2024/01/03 01:01:34;;;;;;;0.00;0.00;;;9.60;99.90;;;;;;5021208;28;20047;-78
2024/01/03 01:04:00;;;;;;;0.10;0.10;;;9.50;99.90;;;;;;5024187;28;20797;-78
2024/01/03 01:06:25;;;;;;;0.10;0.10;;;9.60;99.90;;;;;;5023195;28;20798;-78
2024/01/03 01:08:51;;;;;;;0.10;0.10;;;9.60;99.90;;;;;;5024506;28;20762;-77
2024/01/03 01:11:17;;;;;;;1.20;1.10;;;9.70;99.90;;;;;;5023964;28;20018;-77
2024/01/03 01:13:42;;;;;;;0.10;0.10;;;9.80;99.90;;;;;;5021496;28;20033;-77
2024/01/03 01:16:08;;;;;;;0.10;0.10;;;9.80;99.90;;;;;;5024267;28;20036;-75
2024/01/03 01:18:33;;;;;;;0.10;0.10;;;9.90;99.90;;;;;;5022273;28;20036;-75
2024/01/03 01:20:59;;;;;;;0.00;0.00;;;9.90;99.90;;;;;;5024866;28;20033;-75
2024/01/03 01:23:25;;;;;;;0.10;0.10;;;9.90;99.90;;;;;;5024484;28;20052;-76
2024/01/03 01:25:50;;;;;;;0.10;0.10;;;9.90;99.90;;;;;;5022681;28;20479;-76
2024/01/03 01:28:16;;;;;;;0.10;0.10;;;9.90;99.90;;;;;;5023312;28;20417;-76
2024/01/03 01:30:42;;;;;;;0.10;0.10;;;9.90;99.90;;;;;;5022010;28;20100;-77
2024/01/03 01:33:07;;;;;;;0.10;0.10;;;9.90;99.90;;;;;;5023076;28;20037;-77
2024/01/03 01:35:33;;;;;;;0.45;0.45;;;10.00;99.90;;;;;;5021458;28;20033;-75
2024/01/03 01:38:03;;;;;;;0.10;0.10;;;10.00;99.90;;;;;;5026089;28;20029;-76
2024/01/03 01:40:29;;;;;;;0.10;0.10;;;10.10;99.90;;;;;;5022783;28;20517;-76
2024/01/03 01:42:55;;;;;;;0.10;0.10;;;10.00;99.90;;;;;;5019055;28;20382;-77
2024/01/03 01:45:20;;;;;;;0.17;0.17;;;9.90;99.90;;;;;;5018927;28;20037;-75
2024/01/03 01:47:46;;;;;;;0.00;0.00;;;10.00;99.90;;;;;;5020733;28;20037;-77
2024/01/03 01:50:13;;;;;;;0.10;0.10;;;9.90;99.90;;;;;;5018790;28;20707;-77
2024/01/03 01:52:40;;;;;;;0.10;0.10;;;9.90;99.90;;;;;;5023583;28;20342;-77
2024/01/03 01:55:07;;;;;;;0.10;0.10;;;9.90;99.90;;;;;;5016488;28;20064;-75
2024/01/03 01:57:33;;;;;;;0.10;0.10;;;10.00;99.90;;;;;;5019808;28;20753;-76
2024/01/03 02:00:02;;;;;;;0.10;0.10;;;9.90;99.90;;;;;;5017842;28;20068;-77
2024/01/03 02:02:29;;;;;;;0.10;0.10;;;9.90;99.90;;;;;;5022952;28;20030;-75
2024/01/03 02:04:55;;;;;;;0.10;0.10;;;9.90;99.90;;;;;;5021886;28;20242;-76
2024/01/03 02:07:22;;;;;;;0.10;0.10;;;9.80;99.90;;;;;;5017256;28;20753;-75
2024/01/03 02:09:48;;;;;;;0.10;0.10;;;9.60;99.90;;;;;;5025461;28;20079;-75
2024/01/03 02:12:13;;;;;;;0.00;0.00;;;9.40;99.90;;;;;;5027666;28;20021;-75
2024/01/03 02:14:39;;;;;;;0.10;0.10;;;9.50;99.90;;;;;;5017642;28;20087;-75
2024/01/03 02:17:05;;;;;;;0.07;0.07;;;9.60;99.90;;;;;;5023774;28;20761;-76
2024/01/03 02:19:31;;;;;;;0.10;0.10;;;9.70;99.90;;;;;;5019286;28;20026;-76
2024/01/03 02:21:56;;;;;;;0.10;0.10;;;9.70;99.90;;;;;;5021258;28;20118;-76
2024/01/03 02:24:22;;;;;;;0.10;0.10;;;9.90;99.90;;;;;;5019281;28;20037;-76
2024/01/03 02:26:48;;;;;;;0.30;0.30;;;9.80;99.90;;;;;;5022957;28;20033;-76
2024/01/03 02:29:13;;;;;;;0.10;0.10;;;9.80;99.90;;;;;;5016118;28;20048;-75
2024/01/03 02:31:40;;;;;;;0.00;0.00;;;9.90;99.90;;;;;;5018092;28;20115;-76
2024/01/03 02:34:05;;;;;;;0.07;0.07;;;9.80;99.90;;;;;;5019730;28;20037;-76
2024/01/03 02:36:31;;;;;;;0.20;0.20;;;9.80;99.90;;;;;;5019159;28;21130;-78
2024/01/03 02:38:58;;;;;;;0.10;0.10;;;9.90;99.90;;;;;;5019297;28;20116;-77
2024/01/03 02:41:24;;;;;;;0.10;0.10;;;9.90;99.90;;;;;;5025399;28;20049;-75
2024/01/03 02:43:49;;;;;;;0.03;0.03;;;9.90;99.90;;;;;;5022644;28;20049;-76
2024/01/03 02:46:19;;;;;;;0.00;0.00;;;9.90;99.90;;;;;;5021621;28;20038;-76
2024/01/03 02:48:44;;;;;;;0.10;0.10;;;9.90;99.90;;;;;;5023362;28;20037;-76
2024/01/03 02:51:21;;;;;;;0.00;0.00;;;9.90;99.90;;;;;;5021799;28;20017;-76
2024/01/03 02:53:47;;;;;;;0.20;0.20;;;9.70;99.90;;;;;;5020250;28;20113;-78
2024/01/03 02:56:13;;;;;;;0.10;0.10;;;9.60;99.90;;;;;;5022586;28;20021;-77
2024/01/03 02:58:39;;;;;;;0.10;0.10;;;9.50;99.90;;;;;;5021840;28;20029;-76
2024/01/03 03:01:05;;;;;;;0.10;0.10;;;9.50;99.90;;;;;;5016220;28;20030;-78
2024/01/03 03:03:30;;;;;;;0.10;0.10;;;9.40;99.90;;;;;;5020358;28;20037;-77
2024/01/03 03:05:56;;;;;;;0.10;0.10;;;9.30;99.90;;;;;;5014647;28;20121;-76
2024/01/03 03:08:22;;;;;;;0.23;0.23;;;9.40;99.90;;;;;;5022411;28;20033;-77
2024/01/03 03:10:48;;;;;;;0.10;0.10;;;9.60;99.90;;;;;;5022057;28;20068;-76
2024/01/03 03:13:14;;;;;;;0.10;0.10;;;9.70;99.90;;;;;;5016651;28;20507;-76
2024/01/03 03:15:39;;;;;;;0.00;0.00;;;9.80;99.90;;;;;;5027537;28;20037;-77
2024/01/03 03:18:07;;;;;;;0.10;0.10;;;9.90;99.90;;;;;;5021742;28;20037;-76
2024/01/03 03:20:33;;;;;;;0.10;0.10;;;9.90;99.90;;;;;;5019568;28;20397;-76
2024/01/03 03:22:58;;;;;;;0.10;0.10;;;10.00;99.90;;;;;;5021995;28;20025;-76
2024/01/03 03:25:24;;;;;;;0.10;0.10;;;10.00;99.90;;;;;;5022472;28;20025;-76
2024/01/03 03:27:51;;;;;;;0.00;0.00;;;10.00;99.90;;;;;;5020397;28;20025;-76
2024/01/03 03:30:16;;;;;;;0.10;0.10;;;10.00;99.90;;;;;;5017057;28;20067;-77
2024/01/03 03:32:44;;;;;;;0.10;0.10;;;10.10;99.90;;;;;;5021362;28;20523;-77
2024/01/03 03:35:13;;;;;;;0.10;0.10;;;10.10;99.90;;;;;;5020999;28;20032;-77
2024/01/03 03:37:39;;;;;;;0.08;0.08;;;10.10;99.90;;;;;;5020268;28;20523;-77
2024/01/03 03:40:06;;;;;;;0.10;0.10;;;10.10;99.90;;;;;;5022636;28;20025;-77
2024/01/03 03:42:31;;;;;;;0.10;0.10;;;10.10;99.90;;;;;;5020867;28;20046;-78
2024/01/03 03:44:57;;;;;;;0.00;0.00;;;10.10;99.90;;;;;;5018218;28;20092;-77
2024/01/03 03:47:23;;;;;;;0.00;0.00;;;10.10;99.90;;;;;;5018646;28;20037;-77
2024/01/03 03:49:48;;;;;;;0.03;0.03;;;10.10;99.90;;;;;;5022081;28;20053;-77
2024/01/03 03:52:14;;;;;;;0.05;0.05;;;10.10;99.90;;;;;;5021354;28;20040;-78
2024/01/03 03:54:39;;;;;;;0.00;0.00;;;10.20;99.90;;;;;;5017293;28;20037;-77
2024/01/03 03:57:05;;;;;;;0.10;0.10;;;10.20;99.90;;;;;;5019413;28;21132;-77
2024/01/03 03:59:31;;;;;;;0.03;0.03;;;10.10;99.90;;;;;;5021534;28;20083;-76
2024/01/03 04:01:56;;;;;;;0.10;0.10;;;10.10;99.90;;;;;;5013763;28;20034;-75
2024/01/03 04:04:22;;;;;;;0.10;0.10;;;10.10;99.90;;;;;;5010552;28;20509;-78
2024/01/03 04:06:48;;;;;;;0.00;0.00;;;10.10;99.90;;;;;;5018403;28;20083;-78
2024/01/03 04:09:14;;;;;;;0.03;0.03;;;10.10;99.90;;;;;;5014166;28;20025;-77
2024/01/03 04:11:41;;;;;;;0.10;0.10;;;10.20;99.90;;;;;;5020571;28;20029;-77
2024/01/03 04:14:07;;;;;;;0.00;0.00;;;10.20;99.90;;;;;;5015730;28;20037;-75
2024/01/03 04:16:34;;;;;;;0.00;0.00;;;10.10;99.90;;;;;;5021151;28;20030;-76
2024/01/03 04:19:00;;;;;;;0.00;0.00;;;10.10;99.90;;;;;;5019681;28;20037;-77
2024/01/03 04:21:27;;;;;;;0.10;0.10;;;10.10;99.90;;;;;;5018475;28;20516;-77
2024/01/03 04:23:52;;;;;;;0.10;0.10;;;10.20;99.90;;;;;;5016551;28;21509;-76
2024/01/03 04:26:18;;;;;;;0.10;0.10;;;10.20;99.90;;;;;;5012514;28;20041;-76
2024/01/03 04:28:43;;;;;;;0.00;0.00;;;10.20;99.90;;;;;;5020519;28;20036;-76
2024/01/03 04:31:09;;;;;;;0.47;0.47;;;10.20;99.90;;;;;;5017009;28;20029;-76
2024/01/03 04:33:35;;;;;;;0.10;0.10;;;10.30;99.90;;;;;;5017332;28;20086;-77
2024/01/03 04:36:00;;;;;;;0.00;0.00;;;10.30;99.90;;;;;;5018501;28;20057;-76
2024/01/03 04:38:26;;;;;;;0.10;0.10;;;10.30;99.90;;;;;;5021114;28;20533;-77
2024/01/03 04:40:52;;;;;;;0.10;0.10;;;10.20;99.90;;;;;;5019443;28;20817;-79
2024/01/03 04:43:17;;;;;;;0.00;0.00;;;10.20;99.90;;;;;;5023589;28;20041;-76
2024/01/03 04:45:43;;;;;;;0.10;0.10;;;10.20;99.90;;;;;;5021228;28;20026;-77
2024/01/03 04:48:09;;;;;;;0.00;0.00;;;10.30;99.90;;;;;;5015464;28;20436;-77
2024/01/03 04:50:34;;;;;;;0.05;0.05;;;10.30;99.90;;;;;;5006145;28;20030;-77
2024/01/03 04:53:00;;;;;;;0.00;0.00;;;10.40;99.90;;;;;;5013653;28;20704;-78
2024/01/03 04:55:26;;;;;;;0.00;0.00;;;10.30;99.90;;;;;;5007680;28;20037;-78
2024/01/03 04:57:52;;;;;;;0.10;0.10;;;10.20;99.90;;;;;;5017842;28;20033;-77
2024/01/03 05:00:18;;;;;;;0.10;0.10;;;10.10;99.90;;;;;;5004814;28;20033;-78
2024/01/03 05:02:44;;;;;;;0.05;0.05;;;10.10;99.90;;;;;;5010310;28;20030;-77
2024/01/03 05:05:10;;;;;;;0.00;0.00;;;10.10;99.90;;;;;;5009376;28;20048;-77
2024/01/03 05:07:35;;;;;;;0.00;0.00;;;10.00;99.90;;;;;;5014151;28;20053;-78
2024/01/03 05:10:01;;;;;;;0.10;0.10;;;9.90;99.90;;;;;;5014472;28;20033;-78
2024/01/03 05:12:27;;;;;;;0.10;0.10;;;9.90;99.90;;;;;;5014659;28;20037;-77
2024/01/03 05:14:53;;;;;;;0.10;0.10;;;9.80;99.90;;;;;;5021384;28;20029;-76
2024/01/03 05:17:19;;;;;;;0.10;0.10;;;9.70;99.90;;;;;;5014614;28;20493;-78
2024/01/03 05:19:45;;;;;;;0.08;0.08;;;9.60;99.90;;;;;;5017751;28;20061;-77
2024/01/03 05:22:10;;;;;;;0.40;0.40;;;9.50;99.90;;;;;;5021375;28;20040;-77
2024/01/03 05:24:36;;;;;;;0.10;0.10;;;9.50;99.90;;;;;;5027089;28;20042;-77
2024/01/03 05:27:02;;;;;;;0.10;0.10;;;9.80;99.90;;;;;;5018904;28;20030;-78
2024/01/03 05:29:27;;;;;;;0.10;0.10;;;9.90;99.90;;;;;;5017813;28;20057;-82
2024/01/03 05:31:53;;;;;;;0.10;0.10;;;10.00;99.90;;;;;;5027487;28;20026;-77
2024/01/03 05:34:19;;;;;;;0.08;0.08;;;10.00;99.90;;;;;;5022502;28;20830;-77
2024/01/03 05:36:44;;;;;;;0.00;0.00;;;9.80;99.90;;;;;;5021755;28;20029;-80
2024/01/03 05:39:13;;;;;;;0.10;0.10;;;9.90;99.90;;;;;;5018040;28;20119;-77
2024/01/03 05:41:39;;;;;;;0.00;0.00;;;9.90;99.90;;;;;;5027835;28;20390;-76
2024/01/03 05:44:04;;;;;;;0.00;0.00;;;9.90;99.90;;;;;;5021071;28;20877;-77
2024/01/03 05:46:30;;;;;;;0.10;0.10;;;9.90;99.90;;;;;;5008473;28;20038;-77
2024/01/03 05:48:56;;;;;;;0.03;0.03;;;9.90;99.90;;;;;;5009401;28;20049;-77
2024/01/03 05:51:22;;;;;;;0.10;0.10;;;9.80;99.90;;;;;;5019542;28;20029;-76
2024/01/03 05:53:48;;;;;;;0.10;0.10;;;9.80;99.90;;;;;;5020512;28;20029;-76
2024/01/03 05:56:15;;;;;;;0.10;0.10;;;9.60;99.90;;;;;;5010449;28;20021;-76
2024/01/03 05:58:42;;;;;;;0.10;0.10;;;9.50;99.90;;;;;;5008122;28;20071;-78
2024/01/03 06:01:08;;;;;;;;;;;9.40;99.90;;;;;;5014642;28;20030;-76
2024/01/03 06:03:33;;;;;;;0.10;0.10;;;9.50;99.90;;;;;;5016111;28;19921;-76
2024/01/03 06:05:59;;;;;;;0.10;0.10;;;9.60;99.90;;;;;;5021026;28;20033;-77
2024/01/03 06:08:25;;;;;;;0.95;0.85;;;9.50;99.90;;;;;;5013274;28;20044;-76
2024/01/03 06:10:50;;;;;;;0.65;0.43;;;9.50;99.90;;;;;;5022035;28;20026;-76
2024/01/03 06:13:16;;;;;;;1.45;1.35;;;9.50;99.90;;;;;;5026628;28;20041;-78
2024/01/03 06:15:42;;;;;;;0.10;0.10;;;9.50;99.90;;;;;;5024182;28;20393;-76
2024/01/03 06:18:08;;;;;;;0.00;0.00;;;9.40;99.90;;;;;;5017190;28;20025;-76
2024/01/03 06:20:33;;;;;;;0.63;0.63;;;9.50;99.90;;;;;;5023265;28;20507;-75
2024/01/03 06:22:59;;;;;;;0.10;0.10;;;9.30;99.90;;;;;;5017651;28;20021;-78
2024/01/03 06:25:25;;;;;;;0.70;0.70;;;9.30;99.90;;;;;;5018161;28;20209;-76
2024/01/03 06:27:53;;;;;;;0.05;0.05;;;9.30;99.90;;;;;;5024650;28;20275;-76
2024/01/03 06:30:19;;;;;;;0.10;0.10;;;9.30;99.90;;;;;;5024600;28;20041;-77
2024/01/03 06:32:44;;;;;;;0.08;0.08;;;9.40;99.90;;;;;;5018432;28;20030;-77
2024/01/03 06:35:10;;;;;;;0.00;0.00;;;9.40;99.90;;;;;;5024209;28;20061;-76
2024/01/03 06:37:36;;;;;;;0.30;0.30;;;9.30;99.90;;;;;;5020708;28;20034;-77
2024/01/03 06:40:02;;;;;;;0.10;0.10;;;9.30;99.90;;;;;;5027092;28;20032;-76
2024/01/03 06:42:27;;;;;;;0.20;0.20;;;9.40;99.90;;;;;;5021316;28;20057;-76
2024/01/03 06:44:53;;;;;;;0.10;0.10;;;9.40;99.90;;;;;;5021561;28;20041;-76
2024/01/03 06:47:19;;;;;;;0.10;0.10;;;9.30;99.90;;;;;;5022345;28;20038;-78
2024/01/03 06:49:45;;;;;;;0.10;0.10;;;9.10;99.90;;;;;;5021065;28;20028;-78
2024/01/03 06:52:11;;;;;;;0.82;0.82;;;9.10;99.90;;;;;;5019145;28;20481;-78
2024/01/03 06:54:36;;;;;;;0.10;0.10;;;9.00;99.90;;;;;;5020891;28;20563;-78
2024/01/03 06:57:03;;;;;;;0.10;0.10;;;8.90;99.90;;;;;;5021791;28;20786;-78
2024/01/03 06:59:33;;;;;;;0.10;0.10;;;8.80;99.90;;;;;;5022233;28;20033;-79
2024/01/03 07:01:59;;;;;;;0.10;0.10;;;8.80;99.90;;;;;;5019054;28;20041;-78
2024/01/03 07:04:25;;;;;;;0.10;0.10;;;8.80;99.90;;;;;;5017224;28;20037;-79
2024/01/03 07:06:51;;;;;;;0.10;0.10;;;8.90;99.90;;;;;;5020255;28;20029;-80
2024/01/03 07:09:17;;;;;;;0.10;0.10;;;9.00;99.90;;;;;;5022573;28;20404;-79
2024/01/03 07:11:42;;;;;;;0.10;0.10;;;9.00;99.90;;;;;;5016716;28;20037;-80
2024/01/03 07:14:12;;;;;;;0.10;0.10;;;9.00;99.90;;;;;;5022266;28;20036;-79
2024/01/03 07:16:38;;;;;;;0.10;0.10;;;9.10;99.90;;;;;;5016269;28;20037;-79
2024/01/03 07:19:03;;;;;;;0.10;0.10;;;9.20;99.90;;;;;;5018365;28;20726;-78
2024/01/03 07:21:29;;;;;;;0.10;0.10;;;9.30;99.90;;;;;;5022097;28;20037;-80
2024/01/03 07:23:55;;;;;;;0.10;0.10;;;9.30;99.90;;;;;;5019828;28;20038;-82
2024/01/03 07:26:20;;;;;;;0.10;0.10;;;9.30;99.90;;;;;;5021994;28;20033;-78
2024/01/03 07:28:49;;;;;;;0.87;0.87;;;9.10;99.90;;;;;;5016653;28;20029;-81
2024/01/03 07:31:15;;;;;;;0.10;0.10;;;9.10;99.90;;;;;;5022252;28;20029;-79
2024/01/03 07:33:40;;;;;;;0.10;0.10;;;9.00;99.90;;;;;;5013035;28;20026;-79
2024/01/03 07:36:07;;;;;;;0.10;0.10;;;9.10;99.90;;;;;;5009431;28;20030;-78
2024/01/03 07:38:33;;;;;;;0.15;0.15;;;9.30;99.90;;;;;;5028297;28;20025;-82
2024/01/03 07:40:59;;;;;;;0.10;0.10;;;9.30;99.90;;;;;;5020726;28;20076;-78
2024/01/03 07:43:26;;;;;;;0.10;0.10;;;9.30;99.90;;;;;;5017957;28;20061;-79
2024/01/03 07:45:51;;;;;;;0.10;0.10;;;9.40;99.90;;;;;;5017367;28;20041;-78
2024/01/03 07:48:17;;;;;;;0.10;0.10;;;9.40;99.90;;;;;;5019844;28;20026;-79
2024/01/03 07:50:43;;;;;;;0.10;0.10;;;9.40;99.90;;;;;;5018379;28;20116;-77
2024/01/03 07:53:08;;;;;;;0.10;0.10;;;9.40;99.90;;;;;;5006980;28;20053;-78
2024/01/03 07:55:34;;;;;;;0.00;0.00;;;9.40;99.90;;;;;;5016878;28;20025;-80
2024/01/03 07:58:00;;;;;;;0.10;0.10;;;9.30;99.90;;;;;;5013879;28;20025;-85
2024/01/03 08:00:29;;;;;;;0.10;0.10;;;9.40;99.90;;;;;;5016365;28;20722;-79
2024/01/03 08:02:55;;;;;;;0.10;0.10;;;9.40;99.90;;;;;;5017979;28;20021;-80
2024/01/03 08:05:20;;;;;;;0.10;0.10;;;9.30;99.90;;;;;;5015606;28;20045;-79
2024/01/03 08:07:46;;;;;;;0.10;0.10;;;9.30;99.90;;;;;;5016016;28;20037;-80
2024/01/03 08:10:12;;;;;;;0.10;0.10;;;9.50;99.90;;;;;;5013135;28;20040;-79
2024/01/03 08:12:37;;;;;;;0.10;0.10;;;9.50;99.90;;;;;;5020892;28;20025;-79
2024/01/03 08:15:03;;;;;;;0.10;0.10;;;9.60;99.90;;;;;;5016021;28;20504;-78
2024/01/03 08:17:29;;;;;;;0.00;0.00;;;9.50;99.90;;;;;;5016076;28;20048;-80
2024/01/03 08:19:55;;;;;;;0.00;0.00;;;9.60;99.90;;;;;;5010017;28;20655;-80
2024/01/03 08:22:20;;;;;;;0.10;0.10;;;9.80;99.90;;;;;;5021078;28;20052;-79
2024/01/03 08:24:46;;;;;;;0.00;0.00;;;10.10;99.90;;;;;;5021150;28;20037;-78
2024/01/03 08:27:12;;;;;;;0.10;0.10;;;10.20;99.90;;;;;;5003873;28;20121;-78
2024/01/03 08:29:38;;;;;;;0.52;0.52;;;10.20;99.90;;;;;;5009790;28;20088;-79
2024/01/03 08:32:04;;;;;;;0.00;0.00;;;10.20;99.90;;;;;;5014262;28;20355;-77
2024/01/03 08:34:30;;;;;;;0.10;0.10;;;10.10;99.90;;;;;;5018382;28;20047;-82
2024/01/03 08:36:56;;;;;;;0.10;0.10;;;10.00;99.90;;;;;;5014681;28;20033;-78
2024/01/03 08:39:22;;;;;;;0.10;0.10;;;10.10;99.90;;;;;;5020688;28;20013;-80
2024/01/03 08:41:48;;;;;;;2.08;1.95;;;10.30;99.90;;;;;;5015172;28;20124;-80
2024/01/03 08:44:13;;;;;;;0.05;0.05;;;10.40;99.90;;;;;;5017041;28;20037;-79
2024/01/03 08:46:40;;;;;;;0.00;0.00;;;10.40;99.90;;;;;;5012455;28;20041;-79
2024/01/03 08:49:07;;;;;;;0.10;0.10;;;10.70;99.90;;;;;;5010450;28;20029;-78
2024/01/03 08:51:33;;;;;;;0.10;0.10;;;10.70;99.90;;;;;;5020707;28;20083;-78
2024/01/03 08:53:59;;;;;;;1.20;1.10;;;10.50;99.90;;;;;;5016616;28;20030;-78
2024/01/03 08:56:25;;;;;;;0.00;0.00;;;10.60;99.90;;;;;;5014276;28;20030;-79
2024/01/03 08:58:51;;;;;;;0.10;0.10;;;10.60;99.90;;;;;;5016721;28;20029;-80
2024/01/03 09:01:21;;;;;;;0.00;0.00;;;10.80;99.90;;;;;;5022220;28;20045;-78
2024/01/03 09:03:47;;;;;;;0.10;0.10;;;11.00;99.90;;;;;;5024346;28;20045;-79
2024/01/03 09:06:17;;;;;;;0.10;0.10;;;11.40;99.90;;;;;;5024183;28;20492;-79
2024/01/03 09:08:43;;;;;;;0.00;0.00;;;11.60;99.90;;;;;;5025035;28;20041;-78
2024/01/03 09:11:12;;;;;;;0.30;0.30;;;11.80;99.90;;;;;;5024695;28;20030;-78
2024/01/03 09:13:39;;;;;;;1.25;0.40;;;11.90;99.90;;;;;;5023006;28;20029;-79
2024/01/03 09:16:06;;;;;;;0.10;0.10;;;11.60;99.90;;;;;;5024437;28;20048;-80
2024/01/03 09:18:32;;;;;;;0.03;0.03;;;11.40;99.90;;;;;;5024085;28;20042;-81
2024/01/03 09:21:01;;;;;;;0.10;0.10;;;11.20;99.90;;;;;;5028665;28;20029;-79
2024/01/03 09:23:27;;;;;;;0.00;0.00;;;11.30;99.90;;;;;;5024510;28;20030;-78
2024/01/03 09:25:55;;;;;;;0.05;0.05;;;11.50;99.90;;;;;;5015221;28;20030;-78
2024/01/03 09:28:21;;;;;;;0.00;0.00;;;11.60;99.90;;;;;;5014658;28;20021;-79
2024/01/03 09:30:47;;;;;;;0.63;0.63;;;11.70;99.90;;;;;;5023516;28;20141;-78
2024/01/03 09:33:13;;;;;;;0.00;0.00;;;11.70;99.90;;;;;;5020252;28;20091;-78
2024/01/03 09:35:38;;;;;;;0.00;0.00;;;11.90;99.90;;;;;;5018902;28;20095;-78
2024/01/03 09:38:05;;;;;;;0.07;0.07;;;11.70;99.90;;;;;;5018920;28;20025;-80
2024/01/03 09:40:31;;;;;;;0.00;0.00;;;11.60;99.90;;;;;;5016890;28;20673;-80
2024/01/03 09:42:58;;;;;;;0.10;0.10;;;11.40;99.90;;;;;;5014162;28;20034;-84
2024/01/03 09:45:23;;;;;;;0.00;0.00;;;11.10;99.90;;;;;;5020241;28;20029;-80
2024/01/03 09:47:49;;;;;;;0.00;0.00;;;11.10;99.90;;;;;;5023958;28;20041;-81
2024/01/03 09:50:16;;;;;;;0.10;0.10;;;11.10;99.90;;;;;;5015565;28;20026;-82
2024/01/03 09:52:43;;;;;;;0.10;0.10;;;11.30;99.90;;;;;;5019678;28;20594;-80
2024/01/03 09:55:09;;;;;;;0.00;0.00;;;11.40;99.90;;;;;;5019359;28;20033;-80
2024/01/03 09:57:38;;;;;;;0.10;0.10;;;11.50;99.90;;;;;;5012865;28;20065;-82
2024/01/03 10:00:05;;;;;;;0.00;0.00;;;11.50;99.90;;;;;;5010554;28;20033;-79
2024/01/03 10:02:30;;;;;;;0.00;0.00;;;11.50;99.90;;;;;;5013030;28;20029;-80
2024/01/03 10:04:56;;;;;;;0.50;0.50;;;11.50;99.90;;;;;;5015155;28;20123;-79
2024/01/03 10:07:35;;;;;;;1.40;1.30;;;11.50;99.90;;;;;;5012541;28;20120;-81
2024/01/03 10:10:02;;;;;;;0.00;0.00;;;11.50;99.90;;;;;;5037986;28;20037;-80
2024/01/03 10:12:34;;;;;;;;;;;11.50;99.90;;;;;;5013360;28;20033;-82
2024/01/03 10:15:16;;;;;;;0.10;0.10;;;11.70;99.90;;;;;;5021633;28;20489;-79
2024/01/03 10:17:46;;;;;;;0.10;0.10;;;11.60;99.90;;;;;;5021392;28;20436;-80
2024/01/03 10:20:28;;;;;;;1.85;1.48;;;11.60;99.90;;;;;;5019759;28;20595;-79
2024/01/03 10:23:06;;;;;;;0.00;0.00;;;11.50;99.90;;;;;;5017924;28;20085;-80
2024/01/03 10:25:32;;;;;;;0.00;0.00;;;11.50;99.90;;;;;;5020459;28;20291;-81
2024/01/03 10:28:06;;;;;;;0.00;0.00;;;11.50;99.90;;;;;;5017428;28;20033;-81
2024/01/03 10:30:32;;;;;;;0.00;0.00;;;11.70;99.90;;;;;;5022955;28;20272;-80
2024/01/03 10:33:02;;;;;;;0.00;0.00;;;11.70;99.90;;;;;;5023216;28;20030;-80
2024/01/03 10:35:31;;;;;;;0.10;0.10;;;11.90;99.90;;;;;;5014644;28;20113;-80
2024/01/03 10:38:02;;;;;;;0.00;0.00;;;12.00;99.90;;;;;;5013194;28;20029;-81
2024/01/03 10:40:32;;;;;;;0.03;0.03;;;12.10;99.90;;;;;;5018654;28;20051;-80
2024/01/03 10:42:59;;;;;;;0.00;0.00;;;11.90;99.90;;;;;;5025220;28;20839;-81
2024/01/03 10:45:26;;;;;;;0.00;0.00;;;11.80;99.90;;;;;;5013984;28;20041;-82
2024/01/03 10:47:52;;;;;;;0.20;0.20;;;12.10;99.90;;;;;;5020883;28;20034;-79
2024/01/03 10:50:18;;;;;;;;;;;11.90;99.90;;;;;;5015673;28;20025;-79
2024/01/03 10:52:45;;;;;;;0.10;0.10;;;11.80;99.90;;;;;;5015536;28;19909;-78
2024/01/03 10:55:22;;;;;;;;;;;11.80;99.90;;;;;;5009033;28;20070;-78
2024/01/03 10:57:57;;;;;;;0.43;0.43;;;11.80;99.90;;;;;;5018337;28;19913;-79
2024/01/03 11:00:33;;;;;;;0.10;0.10;;;11.80;99.90;;;;;;5011596;28;20075;-79
2024/01/03 11:03:11;;;;;;;0.00;0.00;;;12.00;99.90;;;;;;5015557;28;20028;-78
2024/01/03 11:06:05;;;;;;;0.00;0.00;;;12.20;99.90;;;;;;5019120;28;20154;-79
2024/01/03 11:08:57;;;;;;;0.10;0.10;;;12.30;99.90;;;;;;5013137;28;20575;-78
2024/01/03 11:11:33;;;;;;;0.08;0.08;;;12.00;99.90;;;;;;5022428;28;20029;-79
2024/01/03 11:14:18;;;;;;;0.10;0.10;;;11.80;99.90;;;;;;5018667;28;20032;-79
2024/01/03 11:16:44;;;;;;;0.15;0.15;;;11.80;99.90;;;;;;5015787;28;20026;-79
2024/01/03 11:19:10;;;;;;;0.30;0.30;;;12.00;99.90;;;;;;5015623;28;20068;-79
2024/01/03 11:21:36;;;;;;;0.00;0.00;;;12.00;99.90;;;;;;5018464;28;20101;-83
2024/01/03 11:24:03;;;;;;;0.17;0.17;;;12.00;99.90;;;;;;5020293;28;20042;-82
2024/01/03 11:26:53;;;;;;;0.00;0.00;;;11.80;99.90;;;;;;5016683;28;20031;-82
2024/01/03 11:29:48;;;;;;;0.35;0.35;;;11.70;99.90;;;;;;5024207;28;20806;-82
2024/01/03 11:32:14;;;;;;;0.08;0.08;;;11.70;99.90;;;;;;5025750;28;20045;-83
2024/01/03 11:34:46;;;;;;;0.00;0.00;;;11.70;99.90;;;;;;5035894;28;20038;-83
2024/01/03 11:37:11;;;;;;;0.00;0.00;;;11.60;99.90;;;;;;5026818;28;20030;-82
2024/01/03 11:39:43;;;;;;;1.50;0.43;;;11.50;99.90;;;;;;5024525;28;20030;-84
2024/01/03 11:42:18;;;;;;;0.47;0.47;;;11.60;99.90;;;;;;5021347;28;20527;-82
2024/01/03 11:44:45;;;;;;;0.25;0.25;;;11.70;99.90;;;;;;5005096;28;20033;-82
2024/01/03 11:47:12;;;;;;;9.85;1.65;;;11.80;99.90;;;;;;5018013;28;20045;-83
2024/01/03 11:49:39;;;;;;;1.63;1.60;;;11.80;99.90;;;;;;5017969;28;20048;-82
2024/01/03 11:52:05;;;;;;;0.00;0.00;;;11.70;99.90;;;;;;5017193;28;20038;-84
2024/01/03 11:54:32;;;;;;;0.13;0.13;;;11.70;99.90;;;;;;5022394;28;20037;-83
2024/01/03 11:56:58;;;;;;;0.10;0.10;;;11.70;99.90;;;;;;5016717;28;20094;-83
2024/01/03 11:59:24;;;;;;;0.00;0.00;;;11.90;99.90;;;;;;5011644;28;20018;-83
2024/01/03 12:02:00;;;;;;;0.00;0.00;;;11.90;99.90;;;;;;5021614;28;20060;-83
2024/01/03 12:04:26;;;;;;;0.10;0.10;;;11.80;99.90;;;;;;5018281;28;20426;-82
2024/01/03 12:06:55;;;;;;;;;;;11.60;99.90;;;;;;5020636;28;20214;-83
2024/01/03 12:09:22;;;;;;;0.10;0.10;;;11.60;99.90;;;;;;5020185;28;19982;-82
2024/01/03 12:11:47;;;;;;;0.05;0.05;;;11.60;99.90;;;;;;5020579;28;20798;-83
2024/01/03 12:14:19;;;;;;;2.37;0.67;;;11.50;99.90;;;;;;5020623;28;20045;-82
2024/01/03 12:16:49;;;;;;;0.10;0.10;;;11.50;99.90;;;;;;5016695;28;20033;-83
2024/01/03 12:19:26;;;;;;;0.00;0.00;;;11.60;99.90;;;;;;5015266;28;20037;-81
2024/01/03 12:21:59;;;;;;;0.00;0.00;;;11.70;99.90;;;;;;5021081;28;20033;-83
2024/01/03 12:24:41;;;;;;;0.08;0.08;;;11.70;99.90;;;;;;5021157;28;20397;-82
2024/01/03 12:27:08;;;;;;;0.10;0.10;;;11.60;99.90;;;;;;5021636;28;20114;-82
2024/01/03 12:29:34;;;;;;;;;;;11.60;99.90;;;;;;5018595;28;20025;-82
2024/01/03 12:32:17;;;;;;;0.00;0.00;;;11.50;99.90;;;;;;5025070;28;19948;-82
2024/01/03 12:34:44;;;;;;;0.00;0.00;;;11.40;99.90;;;;;;5025231;28;20117;-81
2024/01/03 12:37:10;;;;;;;0.75;0.43;;;11.40;99.90;;;;;;5012420;28;20034;-82
2024/01/03 12:39:39;;;;;;;0.32;0.32;;;11.30;99.90;;;;;;5025469;28;20025;-81
2024/01/03 12:42:08;;;;;;;0.10;0.10;;;11.30;99.90;;;;;;5022692;28;20632;-83
2024/01/03 12:44:36;;;;;;;0.77;0.77;;;11.20;99.90;;;;;;5016300;28;20034;-83
2024/01/03 12:47:08;;;;;;;0.00;0.00;;;11.20;99.90;;;;;;5025712;28;20021;-83
2024/01/03 12:49:34;;;;;;;0.10;0.10;;;11.20;99.90;;;;;;5024739;28;20037;-82
2024/01/03 12:52:01;;;;;;;0.75;0.75;;;11.20;99.90;;;;;;5024280;28;20777;-85